createdAt,value
2023-04-14T00:01:27.155Z,1.07
2023-04-14T00:03:55.238Z,1.40
2023-04-14T00:06:24.635Z,1.30
2023-04-14T00:08:52.749Z,1.43
2023-04-14T00:11:20.675Z,1.17
2023-04-14T00:13:48.575Z,1.40
2023-04-14T00:16:16.714Z,1.00
2023-04-14T00:18:44.649Z,1.10
2023-04-14T00:21:13.371Z,1.30
2023-04-14T00:23:42.761Z,1.07
2023-04-14T00:26:10.689Z,1.10
2023-04-14T00:28:38.676Z,1.00
2023-04-14T00:31:07.134Z,1.20
2023-04-14T00:33:35.049Z,0.90
2023-04-14T00:36:02.960Z,1.13
2023-04-14T00:38:31.525Z,1.00
2023-04-14T00:41:00.822Z,1.10
2023-04-14T00:43:28.760Z,1.10
2023-04-14T00:45:56.703Z,0.80
2023-04-14T00:48:24.657Z,1.20
2023-04-14T00:50:52.699Z,1.00
2023-04-14T00:53:21.185Z,1.10
2023-04-14T00:55:49.099Z,1.20
2023-04-14T00:58:18.325Z,1.30
2023-04-14T01:00:46.325Z,1.00
2023-04-14T01:03:14.350Z,1.00
2023-04-14T01:05:42.438Z,1.00
2023-04-14T01:08:10.620Z,1.10
2023-04-14T01:10:42.210Z,1.20
2023-04-14T01:13:21.320Z,1.20
2023-04-14T01:15:51.885Z,1.10
2023-04-14T01:18:23.177Z,1.00
2023-04-14T01:20:51.727Z,1.50
2023-04-14T01:23:23.775Z,1.00
2023-04-14T01:26:29.763Z,1.30
2023-04-14T01:29:08.781Z,1.30
2023-04-14T01:31:39.496Z,1.20
2023-04-14T01:34:10.803Z,1.47
2023-04-14T01:36:41.493Z,1.17
2023-04-14T01:39:10.034Z,1.30
2023-04-14T01:41:38.814Z,1.50
2023-04-14T01:44:06.881Z,1.50
2023-04-14T01:46:35.318Z,2.03
2023-04-14T01:49:04.707Z,1.67
2023-04-14T01:51:32.853Z,1.20
2023-04-14T01:54:00.765Z,1.90
2023-04-14T01:56:28.656Z,1.60
2023-04-14T01:58:56.640Z,1.87
2023-04-14T02:01:24.911Z,1.53
2023-04-14T02:03:53.264Z,1.67
2023-04-14T02:06:22.751Z,1.83
2023-04-14T02:08:51.020Z,1.60
2023-04-14T02:11:18.991Z,1.60
2023-04-14T02:13:46.877Z,1.43
2023-04-14T02:16:15.247Z,1.97
2023-04-14T02:18:43.190Z,1.97
2023-04-14T02:21:11.075Z,1.63
2023-04-14T02:23:40.334Z,1.40
2023-04-14T02:26:11.102Z,1.87
2023-04-14T02:28:43.068Z,1.77
2023-04-14T02:31:11.432Z,2.00
2023-04-14T02:33:39.534Z,1.60
2023-04-14T02:36:10.573Z,1.80
2023-04-14T02:38:41.821Z,1.77
2023-04-14T02:41:14.862Z,1.73
2023-04-14T02:43:45.365Z,1.47
2023-04-14T02:46:13.384Z,1.57
2023-04-14T02:48:42.986Z,1.60
2023-04-14T02:51:11.441Z,1.90
2023-04-14T02:53:40.685Z,1.70
2023-04-14T02:56:08.727Z,1.73
2023-04-14T02:58:36.979Z,1.90
2023-04-14T03:01:05.042Z,1.33
2023-04-14T03:03:35.419Z,1.23
2023-04-14T03:06:03.704Z,1.10
2023-04-14T03:08:31.572Z,1.40
2023-04-14T03:11:00.923Z,1.80
2023-04-14T03:13:28.859Z,1.37
2023-04-14T03:15:56.775Z,1.30
2023-04-14T03:18:24.648Z,1.30
2023-04-14T03:20:55.920Z,1.33
2023-04-14T03:23:24.510Z,1.23
2023-04-14T03:25:52.356Z,1.30
2023-04-14T03:28:23.574Z,1.27
2023-04-14T03:30:52.686Z,1.83
2023-04-14T03:33:23.405Z,1.27
2023-04-14T03:35:51.638Z,1.30
2023-04-14T03:38:19.522Z,1.30
2023-04-14T03:40:48.481Z,1.50
2023-04-14T03:43:19.996Z,1.23
2023-04-14T03:45:50.178Z,1.43
2023-04-14T03:48:19.555Z,1.07
2023-04-14T03:50:49.893Z,1.27
2023-04-14T03:53:18.105Z,1.30
2023-04-14T03:55:46.659Z,1.37
2023-04-14T03:58:14.849Z,1.10
2023-04-14T04:00:42.985Z,1.10
2023-04-14T04:03:12.340Z,1.67
2023-04-14T04:05:40.999Z,1.20
2023-04-14T04:08:09.564Z,0.90
2023-04-14T04:10:37.501Z,1.10
2023-04-14T04:13:08.242Z,1.20
2023-04-14T04:15:36.226Z,1.10
2023-04-14T04:18:04.107Z,1.03
2023-04-14T04:20:33.398Z,1.10
2023-04-14T04:23:01.694Z,1.40
2023-04-14T04:25:29.576Z,0.90
2023-04-14T04:27:57.485Z,1.17
2023-04-14T04:30:25.389Z,1.20
2023-04-14T04:32:53.273Z,1.00
2023-04-14T04:35:21.362Z,0.80
2023-04-14T04:37:50.777Z,1.07
2023-04-14T04:40:18.781Z,1.07
2023-04-14T04:42:46.666Z,0.90
2023-04-14T04:45:14.542Z,1.13
2023-04-14T04:47:42.549Z,1.20
2023-04-14T04:50:10.687Z,1.30
2023-04-14T04:52:38.559Z,1.20
2023-04-14T04:55:08.849Z,1.03
2023-04-14T04:57:36.778Z,1.30
2023-04-14T05:00:05.424Z,1.00
2023-04-14T05:02:33.432Z,1.30
2023-04-14T05:05:01.422Z,0.93
2023-04-14T05:07:29.288Z,1.10
2023-04-14T05:09:57.244Z,0.80
2023-04-14T05:12:26.568Z,0.87
2023-04-14T05:14:54.432Z,0.97
2023-04-14T05:17:22.316Z,0.90
2023-04-14T05:19:50.531Z,0.90
2023-04-14T05:22:18.546Z,1.17
2023-04-14T05:24:50.531Z,1.00
2023-04-14T05:27:18.564Z,1.23
2023-04-14T05:29:47.846Z,1.20
2023-04-14T05:32:15.757Z,0.90
2023-04-14T05:34:43.637Z,1.37
2023-04-14T05:37:11.557Z,1.00
2023-04-14T05:39:39.435Z,1.10
2023-04-14T05:42:07.387Z,1.47
2023-04-14T05:44:35.598Z,1.20
2023-04-14T05:47:04.922Z,1.23
2023-04-14T05:49:32.904Z,1.10
2023-04-14T05:52:01.239Z,1.23
2023-04-14T05:54:29.154Z,1.10
2023-04-14T05:56:57.669Z,1.10
2023-04-14T05:59:25.671Z,1.07
2023-04-14T06:01:53.640Z,1.00
2023-04-14T06:04:23.156Z,1.10
2023-04-14T06:06:51.566Z,1.00
2023-04-14T06:09:19.500Z,1.20
2023-04-14T06:11:47.401Z,1.23
2023-04-14T06:14:15.457Z,1.13
2023-04-14T06:16:43.387Z,1.23
2023-04-14T06:19:11.327Z,1.20
2023-04-14T06:21:40.666Z,1.00
2023-04-14T06:24:09.273Z,1.20
2023-04-14T06:26:37.599Z,1.03
2023-04-14T06:29:07.547Z,1.00
2023-04-14T06:31:35.923Z,1.30
2023-04-14T06:34:04.343Z,0.70
2023-04-14T06:36:32.909Z,1.13
2023-04-14T06:39:02.605Z,1.03
2023-04-14T06:41:31.308Z,1.20
2023-04-14T06:43:59.207Z,1.10
2023-04-14T06:46:27.199Z,1.20
2023-04-14T06:48:55.139Z,0.90
2023-04-14T06:51:23.228Z,1.23
2023-04-14T06:53:51.518Z,3.27
2023-04-14T06:56:20.775Z,1.20
2023-04-14T06:58:48.715Z,1.40
2023-04-14T07:01:16.697Z,1.20
2023-04-14T07:03:47.152Z,1.23
2023-04-14T07:06:17.255Z,1.17
2023-04-14T07:08:46.695Z,0.93
2023-04-14T07:11:14.739Z,1.10
2023-04-14T07:13:44.079Z,1.13
2023-04-14T07:16:12.028Z,0.90
2023-04-14T07:18:39.916Z,1.07
2023-04-14T07:21:08.487Z,1.93
2023-04-14T07:23:36.366Z,1.20
2023-04-14T07:26:04.335Z,0.70
2023-04-14T07:28:32.542Z,0.93
2023-04-14T07:31:08.465Z,0.90
2023-04-14T07:33:36.605Z,0.80
2023-04-14T07:36:06.234Z,0.90
2023-04-14T07:38:34.173Z,1.07
2023-04-14T07:41:04.796Z,1.20
2023-04-14T07:43:35.212Z,1.00
2023-04-14T07:46:05.769Z,1.10
2023-04-14T07:48:33.967Z,0.90
2023-04-14T07:51:01.872Z,0.80
2023-04-14T07:53:29.804Z,1.00
2023-04-14T07:55:58.665Z,0.73
2023-04-14T07:58:29.075Z,0.87
2023-04-14T08:00:57.877Z,0.80
2023-04-14T08:03:27.372Z,0.80
2023-04-14T08:05:55.508Z,0.50
2023-04-14T08:08:23.646Z,1.13
2023-04-14T08:10:51.526Z,0.60
2023-04-14T08:13:20.007Z,8.13
2023-04-14T08:15:48.498Z,1.07
2023-04-14T08:18:16.365Z,0.30
2023-04-14T08:20:45.689Z,0.50
2023-04-14T08:23:13.608Z,0.50
2023-04-14T08:25:42.296Z,0.50
2023-04-14T08:28:10.286Z,0.40
2023-04-14T08:30:38.345Z,0.67
2023-04-14T08:33:06.296Z,0.50
2023-04-14T08:35:37.235Z,0.50
2023-04-14T08:38:10.817Z,0.40
2023-04-14T08:40:39.748Z,0.50
2023-04-14T08:43:07.771Z,0.43
2023-04-14T08:45:36.120Z,0.40
2023-04-14T08:48:04.987Z,0.40
2023-04-14T08:50:34.158Z,0.30
2023-04-14T08:53:02.962Z,0.30
2023-04-14T08:55:32.893Z,0.63
2023-04-14T08:58:02.113Z,0.37
2023-04-14T09:00:31.202Z,0.40
2023-04-14T09:02:59.316Z,0.20
2023-04-14T09:05:27.458Z,0.30
2023-04-14T09:07:55.446Z,0.17
2023-04-14T09:10:24.021Z,0.20
2023-04-14T09:12:53.587Z,0.20
2023-04-14T09:15:21.913Z,0.20
2023-04-14T09:17:50.150Z,0.27
2023-04-14T09:20:38.501Z,0.33
2023-04-14T09:23:09.429Z,0.30
2023-04-14T09:25:38.933Z,0.47
2023-04-14T09:28:08.249Z,0.20
2023-04-14T09:30:36.383Z,0.60
2023-04-14T09:33:06.312Z,0.37
2023-04-14T09:35:44.554Z,0.20
2023-04-14T09:38:12.480Z,0.30
2023-04-14T09:40:40.368Z,0.30
2023-04-14T09:43:12.922Z,0.30
2023-04-14T09:45:44.982Z,0.30
2023-04-14T09:48:16.391Z,0.30
2023-04-14T09:51:03.515Z,0.63
2023-04-14T09:53:32.124Z,0.30
2023-04-14T09:56:02.652Z,0.40
2023-04-14T09:58:32.793Z,0.33
2023-04-14T10:01:04.790Z,0.40
2023-04-14T10:03:34.749Z,0.40
2023-04-14T10:06:04.926Z,0.40
2023-04-14T10:08:37.749Z,0.40
2023-04-14T10:11:15.820Z,0.33
2023-04-14T10:13:45.366Z,0.50
2023-04-14T10:16:13.543Z,0.30
2023-04-14T10:18:41.505Z,0.50
2023-04-14T10:21:09.687Z,1.70
2023-04-14T10:23:38.414Z,0.60
2023-04-14T10:26:07.225Z,0.70
2023-04-14T10:28:36.052Z,0.50
2023-04-14T10:31:06.783Z,0.40
2023-04-14T10:33:34.746Z,0.50
2023-04-14T10:36:02.676Z,0.50
2023-04-14T10:38:42.321Z,0.40
2023-04-14T10:41:10.681Z,0.53
2023-04-14T10:43:38.736Z,0.50
2023-04-14T10:46:09.670Z,0.47
2023-04-14T10:48:38.742Z,0.53
2023-04-14T10:51:07.544Z,0.50
2023-04-14T10:53:37.824Z,0.80
2023-04-14T10:56:06.235Z,1.20
2023-04-14T10:58:37.815Z,0.80
2023-04-14T11:01:26.777Z,0.50
2023-04-14T11:03:56.317Z,0.37
2023-04-14T11:06:53.605Z,0.33
2023-04-14T11:09:25.667Z,0.40
2023-04-14T11:11:56.701Z,0.47
2023-04-14T11:14:32.885Z,0.30
2023-04-14T11:17:04.589Z,0.60
2023-04-14T11:19:33.309Z,0.50
2023-04-14T11:22:01.359Z,0.40
2023-04-14T11:24:29.443Z,0.50
2023-04-14T11:26:57.596Z,0.60
2023-04-14T11:29:25.526Z,0.50
2023-04-14T11:32:07.329Z,0.70
2023-04-14T11:34:35.510Z,0.47
2023-04-14T11:37:04.035Z,0.43
2023-04-14T11:39:32.229Z,0.40
2023-04-14T11:42:01.288Z,0.77
2023-04-14T11:44:29.484Z,0.60
2023-04-14T11:46:57.575Z,1.00
2023-04-14T11:49:36.688Z,0.80
2023-04-14T11:52:08.722Z,0.60
2023-04-14T11:54:38.035Z,0.40
2023-04-14T11:57:11.107Z,0.60
2023-04-14T11:59:43.585Z,0.60
2023-04-14T12:02:16.557Z,0.80
2023-04-14T12:04:46.881Z,1.20
2023-04-14T12:07:17.059Z,1.00
2023-04-14T12:09:47.457Z,0.60
2023-04-14T12:12:17.218Z,0.53
2023-04-14T12:14:45.706Z,0.43
2023-04-14T12:17:15.508Z,0.50
2023-04-14T12:19:43.904Z,0.60
2023-04-14T12:22:13.182Z,1.20
2023-04-14T12:24:42.005Z,1.40
2023-04-14T12:27:10.133Z,1.10
2023-04-14T12:29:38.172Z,1.77
2023-04-14T12:32:11.635Z,0.90
2023-04-14T12:34:39.672Z,1.20
2023-04-14T12:37:09.772Z,1.00
2023-04-14T12:39:52.677Z,1.20
2023-04-14T12:42:20.944Z,1.20
2023-04-14T12:44:55.974Z,1.40
2023-04-14T12:47:30.401Z,1.10
2023-04-14T12:49:58.579Z,0.93
2023-04-14T12:52:39.856Z,0.70
2023-04-14T12:55:19.723Z,1.10
2023-04-14T12:57:47.641Z,0.70
2023-04-14T13:00:16.145Z,0.70
2023-04-14T13:02:45.515Z,0.80
2023-04-14T13:05:15.149Z,0.80
2023-04-14T13:07:43.624Z,1.00
2023-04-14T13:10:13.269Z,0.97
2023-04-14T13:12:42.011Z,0.80
2023-04-14T13:16:09.236Z,1.10
2023-04-14T13:17:59.640Z,0.87
2023-04-14T13:20:30.581Z,0.90
2023-04-14T13:22:58.467Z,0.80
2023-04-14T13:25:27.866Z,0.70
2023-04-14T13:27:55.782Z,0.73
2023-04-14T13:30:23.757Z,0.90
2023-04-14T13:32:51.949Z,0.80
2023-04-14T13:35:19.954Z,2.93
2023-04-14T13:37:48.018Z,0.97
2023-04-14T13:40:16.098Z,0.80
2023-04-14T13:42:45.705Z,0.80
2023-04-14T13:45:13.831Z,0.80
2023-04-14T13:47:41.758Z,1.00
2023-04-14T13:50:10.719Z,0.80
2023-04-14T13:52:38.642Z,0.70
2023-04-14T13:55:07.192Z,0.80
2023-04-14T13:57:35.181Z,1.13
2023-04-14T14:00:07.234Z,0.77
2023-04-14T14:02:36.128Z,1.10
2023-04-14T14:05:04.225Z,0.80
2023-04-14T14:07:32.091Z,1.10
2023-04-14T14:10:00.156Z,1.00
2023-04-14T14:12:28.032Z,0.90
2023-04-14T14:14:55.927Z,1.10
2023-04-14T14:17:25.471Z,0.97
2023-04-14T14:19:53.806Z,0.97
2023-04-14T14:22:21.707Z,0.83
2023-04-14T14:24:49.606Z,1.47
2023-04-14T14:27:17.484Z,1.40
2023-04-14T14:29:45.392Z,1.30
2023-04-14T14:32:13.442Z,1.27
2023-04-14T14:34:43.911Z,1.40
2023-04-14T14:37:12.075Z,1.50
2023-04-14T14:39:40.048Z,1.63
2023-04-14T14:42:08.150Z,1.63
2023-04-14T14:44:38.550Z,1.73
2023-04-14T14:47:06.669Z,1.80
2023-04-14T14:49:34.656Z,2.20
2023-04-14T14:52:04.816Z,2.00
2023-04-14T14:54:32.634Z,2.37
2023-04-14T14:57:01.471Z,1.80
2023-04-14T14:59:29.761Z,1.90
2023-04-14T15:01:57.837Z,2.60
2023-04-14T15:04:25.931Z,2.10
2023-04-14T15:06:53.936Z,2.30
2023-04-14T15:09:23.218Z,2.33
2023-04-14T15:11:51.406Z,2.60
2023-04-14T15:14:19.320Z,2.00
2023-04-14T15:16:48.100Z,1.87
2023-04-14T15:19:16.582Z,2.30
2023-04-14T15:21:44.600Z,2.10
2023-04-14T15:24:12.528Z,1.83
2023-04-14T15:26:41.776Z,1.90
2023-04-14T15:29:09.679Z,1.60
2023-04-14T15:31:37.807Z,1.30
2023-04-14T15:34:06.925Z,1.10
2023-04-14T15:36:34.811Z,0.90
2023-04-14T15:39:02.720Z,0.87
2023-04-14T15:41:30.653Z,0.90
2023-04-14T15:44:00.238Z,0.60
2023-04-14T15:46:28.395Z,0.47
2023-04-14T15:48:56.377Z,0.70
2023-04-14T15:51:24.296Z,0.70
2023-04-14T15:53:52.829Z,0.80
2023-04-14T15:56:23.436Z,0.70
2023-04-14T15:58:51.672Z,0.60
2023-04-14T16:01:21.090Z,0.60
2023-04-14T16:03:51.194Z,0.50
2023-04-14T16:06:20.060Z,0.60
2023-04-14T16:08:47.958Z,0.60
2023-04-14T16:11:16.511Z,0.60
2023-04-14T16:13:45.739Z,0.60
2023-04-14T16:16:14.415Z,0.60
2023-04-14T16:18:43.864Z,0.73
2023-04-14T16:21:11.823Z,0.60
2023-04-14T16:23:39.789Z,0.83
2023-04-14T16:26:07.691Z,0.67
2023-04-14T16:28:35.875Z,0.80
2023-04-14T16:31:03.927Z,0.50
2023-04-14T16:33:32.704Z,0.60
2023-04-14T16:36:04.956Z,0.70
2023-04-14T16:38:32.950Z,0.90
2023-04-14T16:41:02.184Z,1.40
2023-04-14T16:43:30.226Z,0.83
2023-04-14T16:46:01.993Z,0.90
2023-04-14T16:48:30.705Z,0.70
2023-04-14T16:50:58.804Z,1.07
2023-04-14T16:53:29.753Z,0.73
2023-04-14T16:56:03.589Z,0.50
2023-04-14T16:58:31.604Z,0.57
2023-04-14T17:00:59.488Z,0.60
2023-04-14T17:03:27.727Z,1.20
2023-04-14T17:05:56.370Z,0.82
2023-04-14T17:08:24.379Z,0.80
2023-04-14T17:10:53.835Z,0.65
2023-04-14T17:13:22.407Z,1.00
2023-04-14T17:15:58.786Z,0.80
2023-04-14T17:18:33.918Z,0.83
2023-04-14T17:21:02.943Z,1.03
2023-04-14T17:23:30.877Z,0.90
2023-04-14T17:26:00.345Z,1.10
2023-04-14T17:28:28.824Z,0.80
2023-04-14T17:30:59.333Z,6.23
2023-04-14T17:33:27.642Z,16.27
2023-04-14T17:35:55.743Z,6.10
2023-04-14T17:38:24.279Z,2.93
2023-04-14T17:40:53.325Z,2.17
2023-04-14T17:43:23.104Z,1.70
2023-04-14T17:45:51.549Z,7.57
2023-04-14T17:48:19.722Z,6.00
2023-04-14T17:50:47.681Z,11.27
2023-04-14T17:53:16.388Z,3.93
2023-04-14T17:55:44.886Z,14.60
2023-04-14T17:58:12.800Z,4.47
2023-04-14T18:00:42.116Z,1.57
2023-04-14T18:03:10.091Z,1.50
2023-04-14T18:05:38.224Z,1.03
2023-04-14T18:08:06.776Z,1.13
2023-04-14T18:10:35.858Z,1.37
2023-04-14T18:13:03.716Z,1.13
2023-04-14T18:15:32.338Z,1.30
2023-04-14T18:18:01.813Z,1.27
2023-04-14T18:20:30.150Z,1.50
2023-04-14T18:23:02.177Z,1.57
2023-04-14T18:26:26.283Z,1.70
2023-04-14T18:28:18.385Z,8.37
2023-04-14T18:30:53.059Z,3.40
2023-04-14T18:33:22.542Z,2.47
2023-04-14T18:35:51.881Z,3.90
2023-04-14T18:38:19.964Z,1.60
2023-04-14T18:40:48.465Z,1.60
2023-04-14T18:43:16.414Z,1.50
2023-04-14T18:45:46.305Z,1.70
2023-04-14T18:48:14.340Z,2.47
2023-04-14T18:50:43.589Z,3.30
2023-04-14T18:53:11.765Z,4.00
2023-04-14T18:55:45.181Z,8.47
2023-04-14T18:58:14.107Z,2.60
2023-04-14T19:00:43.144Z,1.80
2023-04-14T19:03:11.480Z,2.20
2023-04-14T19:05:39.465Z,2.27
2023-04-14T19:08:09.064Z,2.20
2023-04-14T19:10:37.390Z,2.33
2023-04-14T19:13:05.807Z,2.80
2023-04-14T19:15:34.193Z,5.47
2023-04-14T19:18:03.691Z,4.93
2023-04-14T19:20:31.884Z,7.30
2023-04-14T19:22:59.800Z,4.50
2023-04-14T19:25:29.440Z,5.60
2023-04-14T19:28:01.186Z,4.30
2023-04-14T19:30:29.305Z,9.10
2023-04-14T19:32:57.761Z,4.47
2023-04-14T19:35:25.745Z,5.23
2023-04-14T19:37:55.836Z,6.70
2023-04-14T19:40:24.223Z,6.37
2023-04-14T19:42:55.244Z,8.33
2023-04-14T19:45:23.216Z,8.80
2023-04-14T19:47:51.658Z,10.03
2023-04-14T19:50:19.603Z,15.87
2023-04-14T19:52:49.829Z,4.80
2023-04-14T19:55:18.042Z,2.83
2023-04-14T19:57:47.046Z,2.93
2023-04-14T20:00:17.020Z,2.60
2023-04-14T20:02:45.123Z,2.43
2023-04-14T20:05:14.024Z,2.10
2023-04-14T20:07:41.908Z,2.80
2023-04-14T20:10:10.798Z,3.00
2023-04-14T20:12:38.972Z,2.50
2023-04-14T20:15:08.286Z,1.97
2023-04-14T20:17:37.702Z,1.70
2023-04-14T20:20:06.601Z,1.50
2023-04-14T20:22:34.618Z,2.30
2023-04-14T20:25:02.574Z,1.67
2023-04-14T20:27:31.714Z,1.60
2023-04-14T20:29:59.726Z,1.63
2023-04-14T20:32:27.651Z,1.83
2023-04-14T20:34:57.097Z,1.90
2023-04-14T20:37:25.113Z,1.43
2023-04-14T20:39:53.349Z,1.90
2023-04-14T20:42:21.296Z,2.13
2023-04-14T20:44:49.248Z,2.03
2023-04-14T20:47:17.417Z,2.10
2023-04-14T20:49:45.366Z,1.80
2023-04-14T20:52:14.749Z,2.10
2023-04-14T20:54:42.599Z,1.93
2023-04-14T20:57:10.762Z,2.07
2023-04-14T20:59:38.970Z,1.80
2023-04-14T21:02:07.032Z,2.43
2023-04-14T21:04:36.347Z,2.13
2023-04-14T21:07:04.718Z,1.80
2023-04-14T21:09:34.001Z,2.37
2023-04-14T21:12:15.587Z,3.30
2023-04-14T21:15:30.763Z,2.33
2023-04-14T21:17:32.363Z,2.30
2023-04-14T21:20:00.319Z,2.50
2023-04-14T21:22:28.219Z,2.43
2023-04-14T21:24:57.561Z,1.97
2023-04-14T21:27:25.463Z,1.57
2023-04-14T21:29:53.457Z,1.97
2023-04-14T21:32:21.883Z,2.00
2023-04-14T21:34:49.768Z,2.40
2023-04-14T21:37:18.754Z,2.13
2023-04-14T21:39:46.631Z,1.87
2023-04-14T21:42:15.886Z,1.83
2023-04-14T21:44:43.868Z,1.83
2023-04-14T21:47:11.804Z,2.20
2023-04-14T21:49:39.805Z,1.90
2023-04-14T21:52:08.709Z,1.90
2023-04-14T21:54:38.823Z,1.93
2023-04-14T21:57:06.920Z,1.80
2023-04-14T21:59:36.599Z,1.80
2023-04-14T22:02:05.229Z,1.80
2023-04-14T22:04:36.857Z,1.70
2023-04-14T22:07:05.417Z,1.80
2023-04-14T22:09:34.406Z,1.93
2023-04-14T22:12:02.285Z,1.77
2023-04-14T22:14:31.121Z,2.20
2023-04-14T22:17:01.034Z,1.90
2023-04-14T22:19:29.987Z,1.80
2023-04-14T22:21:57.899Z,1.80
2023-04-14T22:24:25.748Z,2.00
2023-04-14T22:26:53.898Z,1.87
2023-04-14T22:29:21.788Z,2.23
2023-04-14T22:31:49.676Z,2.23
2023-04-14T22:34:18.978Z,2.40
2023-04-14T22:36:47.105Z,1.70
2023-04-14T22:39:14.967Z,1.93
2023-04-14T22:41:43.211Z,1.90
2023-04-14T22:44:11.105Z,1.87
2023-04-14T22:46:39.100Z,1.70
2023-04-14T22:49:07.335Z,2.13
2023-04-14T22:51:36.707Z,1.80
2023-04-14T22:54:04.683Z,1.80
2023-04-14T22:56:32.575Z,2.00
2023-04-14T22:59:00.691Z,1.70
2023-04-14T23:01:29.692Z,1.50
2023-04-14T23:03:57.664Z,1.53
2023-04-14T23:06:25.826Z,2.20
2023-04-14T23:08:55.072Z,2.70
2023-04-14T23:11:22.977Z,3.90
2023-04-14T23:13:50.977Z,8.07
2023-04-14T23:16:20.003Z,3.37
2023-04-14T23:18:49.622Z,2.50
2023-04-14T23:21:17.842Z,1.93
2023-04-14T23:23:46.066Z,2.10
2023-04-14T23:26:15.548Z,2.17
2023-04-14T23:28:43.468Z,2.00
2023-04-14T23:31:11.752Z,1.67
2023-04-14T23:33:39.678Z,2.57
2023-04-14T23:36:08.299Z,7.43
2023-04-14T23:38:36.542Z,13.33
2023-04-14T23:41:04.924Z,15.90
2023-04-14T23:43:34.563Z,9.27
2023-04-14T23:46:02.492Z,6.77
2023-04-14T23:48:30.409Z,5.27
2023-04-14T23:51:01.544Z,5.87
2023-04-14T23:53:44.901Z,6.57
2023-04-14T23:56:12.772Z,6.17
2023-04-14T23:58:42.458Z,8.03
